createdAt,value
2023-01-06T00:00:28.707Z,99842.56
2023-01-06T00:03:17.803Z,99861.59
2023-01-06T00:06:04.505Z,99871.88
2023-01-06T00:08:53.565Z,99876.31
2023-01-06T00:11:42.575Z,99879.91
2023-01-06T00:14:31.523Z,99875.84
2023-01-06T00:17:20.658Z,99869.72
2023-01-06T00:20:03.015Z,99879.00
2023-01-06T00:22:53.666Z,99882.06
2023-01-06T00:25:41.852Z,99873.00
2023-01-06T00:28:24.527Z,99875.25
2023-01-06T00:31:19.333Z,99875.72
2023-01-06T00:34:04.527Z,99878.28
2023-01-06T00:37:02.441Z,99872.75
2023-01-06T00:39:51.604Z,99883.00
2023-01-06T00:42:33.934Z,99889.06
2023-01-06T00:45:22.551Z,99887.53
2023-01-06T00:48:04.852Z,99891.75
2023-01-06T00:50:53.520Z,99890.78
2023-01-06T00:53:35.880Z,99891.63
2023-01-06T00:56:24.927Z,99899.78
2023-01-06T00:59:06.804Z,99900.59
2023-01-06T01:01:56.669Z,99908.38
2023-01-06T01:04:38.870Z,99921.38
2023-01-06T01:07:27.521Z,99917.56
2023-01-06T01:10:09.825Z,99928.72
2023-01-06T01:13:01.577Z,99929.28
2023-01-06T01:15:43.828Z,99925.16
2023-01-06T01:18:33.525Z,99936.75
2023-01-06T01:21:15.856Z,99945.28
2023-01-06T01:24:04.495Z,99949.72
2023-01-06T01:26:47.844Z,99953.34
2023-01-06T01:29:36.548Z,99950.81
2023-01-06T01:32:19.199Z,99947.78
2023-01-06T01:35:08.594Z,99954.44
2023-01-06T01:37:50.844Z,99956.22
2023-01-06T01:40:39.569Z,99967.13
2023-01-06T01:43:22.840Z,99967.84
2023-01-06T01:46:11.569Z,99972.03
2023-01-06T01:49:00.518Z,99967.97
2023-01-06T01:51:47.063Z,99968.25
2023-01-06T01:54:42.593Z,99961.31
2023-01-06T01:57:33.974Z,99970.59
2023-01-06T02:00:23.357Z,99960.06
2023-01-06T02:03:13.887Z,99966.88
2023-01-06T02:06:03.476Z,99973.75
2023-01-06T02:09:07.822Z,99970.13
2023-01-06T02:11:51.417Z,99968.66
2023-01-06T02:14:40.867Z,99975.88
2023-01-06T02:17:43.560Z,99982.22
2023-01-06T02:20:43.874Z,99979.50
2023-01-06T02:23:31.528Z,99987.00
2023-01-06T02:26:30.350Z,99996.84
2023-01-06T02:29:44.824Z,100001.41
2023-01-06T02:32:29.571Z,100014.03
2023-01-06T02:35:43.544Z,100023.31
2023-01-06T02:38:31.779Z,100033.31
2023-01-06T02:41:26.458Z,100044.00
2023-01-06T02:44:23.888Z,100044.16
2023-01-06T02:47:25.569Z,100042.72
2023-01-06T02:50:23.803Z,100040.81
2023-01-06T02:53:19.518Z,100041.09
2023-01-06T02:56:04.865Z,100049.53
2023-01-06T02:59:19.513Z,100058.72
2023-01-06T03:02:04.003Z,100060.38
2023-01-06T03:04:58.443Z,100051.47
2023-01-06T03:07:41.911Z,100053.44
2023-01-06T03:10:33.344Z,100051.34
2023-01-06T03:13:40.799Z,100046.25
2023-01-06T03:16:29.414Z,100051.63
2023-01-06T03:19:11.764Z,100062.31
2023-01-06T03:22:03.525Z,100059.41
2023-01-06T03:24:47.282Z,100061.75
2023-01-06T03:27:38.453Z,100065.63
2023-01-06T03:30:21.720Z,100062.84
2023-01-06T03:33:19.500Z,100063.16
2023-01-06T03:36:32.527Z,100071.06
2023-01-06T03:39:30.770Z,100080.47
2023-01-06T03:42:51.439Z,100102.69
2023-01-06T03:46:16.473Z,100096.28
2023-01-06T03:49:10.447Z,100118.22
2023-01-06T03:52:16.515Z,100119.28
2023-01-06T03:55:16.821Z,100124.31
2023-01-06T03:58:08.364Z,100128.84
2023-01-06T04:00:57.544Z,100130.00
2023-01-06T04:03:40.843Z,100141.19
2023-01-06T04:06:29.444Z,100148.72
2023-01-06T04:09:19.780Z,100150.88
2023-01-06T04:12:20.575Z,100158.81
2023-01-06T04:15:09.405Z,100152.59
2023-01-06T04:17:55.489Z,100160.91
2023-01-06T04:20:47.440Z,100170.47
2023-01-06T04:23:35.804Z,100174.81
2023-01-06T04:26:24.457Z,100173.97
2023-01-06T04:29:07.817Z,100172.28
2023-01-06T04:31:57.480Z,100175.91
2023-01-06T04:34:39.834Z,100174.63
2023-01-06T04:37:37.414Z,100184.22
2023-01-06T04:40:26.386Z,100188.03
2023-01-06T04:43:08.888Z,100187.25
2023-01-06T04:45:57.583Z,100201.38
2023-01-06T04:48:39.860Z,100195.94
2023-01-06T04:51:28.488Z,100189.38
2023-01-06T04:54:10.711Z,100188.56
2023-01-06T04:56:59.477Z,100187.06
2023-01-06T04:59:41.806Z,100193.44
2023-01-06T05:02:30.585Z,100197.00
2023-01-06T05:05:12.776Z,100193.56
2023-01-06T05:08:04.715Z,100194.25
2023-01-06T05:10:53.398Z,100183.94
2023-01-06T05:13:43.749Z,100180.19
2023-01-06T05:16:37.573Z,100182.03
2023-01-06T05:19:19.663Z,100169.53
2023-01-06T05:22:08.512Z,100175.25
2023-01-06T05:24:57.411Z,100173.72
2023-01-06T05:27:39.778Z,100174.94
2023-01-06T05:30:28.520Z,100181.88
2023-01-06T05:33:10.859Z,100186.66
2023-01-06T05:36:09.478Z,100197.19
2023-01-06T05:39:09.367Z,100195.75
2023-01-06T05:41:58.406Z,100176.50
2023-01-06T05:44:40.928Z,100170.00
2023-01-06T05:47:29.519Z,100180.94
2023-01-06T05:50:12.749Z,100182.19
2023-01-06T05:53:01.491Z,100178.16
2023-01-06T05:55:50.433Z,100177.75
2023-01-06T05:58:41.598Z,100189.00
2023-01-06T06:01:29.805Z,100186.22
2023-01-06T06:04:21.377Z,100191.22
2023-01-06T06:07:03.879Z,100181.78
2023-01-06T06:09:52.355Z,100175.28
2023-01-06T06:12:34.893Z,100170.94
2023-01-06T06:15:23.524Z,100165.91
2023-01-06T06:18:05.904Z,100162.03
2023-01-06T06:20:54.541Z,100168.16
2023-01-06T06:23:37.796Z,100163.97
2023-01-06T06:26:26.561Z,100161.84
2023-01-06T06:29:08.816Z,100160.44
2023-01-06T06:31:57.509Z,100143.69
2023-01-06T06:34:39.835Z,100136.56
2023-01-06T06:37:28.502Z,100142.38
2023-01-06T06:40:10.689Z,100132.06
2023-01-06T06:43:00.536Z,100123.75
2023-01-06T06:45:42.733Z,100124.06
2023-01-06T06:48:31.563Z,100123.22
2023-01-06T06:51:18.002Z,100116.81
2023-01-06T06:54:06.455Z,100111.03
2023-01-06T06:56:48.692Z,100104.28
2023-01-06T06:59:37.560Z,100097.25
2023-01-06T07:02:19.962Z,100108.56
2023-01-06T07:05:08.510Z,100114.75
2023-01-06T07:07:51.771Z,100116.03
2023-01-06T07:10:41.601Z,100109.72
2023-01-06T07:13:23.791Z,100089.75
2023-01-06T07:16:13.663Z,100087.69
2023-01-06T07:18:55.684Z,100076.31
2023-01-06T07:21:46.459Z,100070.88
2023-01-06T07:24:28.647Z,100067.91
2023-01-06T07:27:17.371Z,100067.00
2023-01-06T07:30:06.412Z,100070.72
2023-01-06T07:32:48.727Z,100075.06
2023-01-06T07:35:37.458Z,100080.13
2023-01-06T07:38:32.341Z,100072.22
2023-01-06T07:41:21.488Z,100077.91
2023-01-06T07:44:17.185Z,100064.06
2023-01-06T07:46:59.663Z,100065.09
2023-01-06T07:49:48.450Z,100061.50
2023-01-06T07:52:36.745Z,100051.53
2023-01-06T07:55:19.498Z,100034.88
2023-01-06T07:58:13.351Z,100030.66
2023-01-06T08:01:02.513Z,100020.16
2023-01-06T08:03:44.649Z,100022.00
2023-01-06T08:06:33.393Z,100020.69
2023-01-06T08:09:21.739Z,100023.81
2023-01-06T08:12:04.443Z,100011.28
2023-01-06T08:14:52.788Z,100007.25
2023-01-06T08:17:34.767Z,100009.16
2023-01-06T08:20:22.837Z,100007.97
2023-01-06T08:23:06.542Z,99993.94
2023-01-06T08:25:54.753Z,100002.88
2023-01-06T08:28:37.425Z,99992.75
2023-01-06T08:31:28.374Z,99982.63
2023-01-06T08:34:12.579Z,99982.00
2023-01-06T08:37:01.491Z,99972.69
2023-01-06T08:39:57.275Z,99962.88
2023-01-06T08:42:46.433Z,99968.34
2023-01-06T08:45:28.848Z,99957.44
2023-01-06T08:48:17.307Z,99947.16
2023-01-06T08:51:09.455Z,99959.75
2023-01-06T08:53:58.786Z,99961.72
2023-01-06T08:56:42.415Z,99963.56
2023-01-06T08:59:30.772Z,99951.94
2023-01-06T09:02:12.475Z,99953.78
2023-01-06T09:05:01.608Z,99956.94
2023-01-06T09:07:50.433Z,99940.38
2023-01-06T09:10:32.624Z,99955.13
2023-01-06T09:13:21.343Z,99943.66
2023-01-06T09:16:13.723Z,99938.63
2023-01-06T09:18:57.439Z,99937.66
2023-01-06T09:21:47.167Z,99935.84
2023-01-06T09:24:29.333Z,99924.75
2023-01-06T09:27:17.722Z,99928.75
2023-01-06T09:30:00.476Z,99915.34
2023-01-06T09:32:42.653Z,99921.81
2023-01-06T09:35:31.526Z,99935.91
2023-01-06T09:38:27.293Z,99929.94
2023-01-06T09:41:45.416Z,99933.06
2023-01-06T09:44:40.781Z,99941.34
2023-01-06T09:47:37.382Z,99937.34
2023-01-06T09:50:52.411Z,99938.28
2023-01-06T09:53:47.255Z,99931.53
2023-01-06T09:56:39.364Z,99912.69
2023-01-06T09:59:35.746Z,99916.81
2023-01-06T10:02:35.484Z,99911.34
2023-01-06T10:05:27.549Z,99909.72
2023-01-06T10:08:22.417Z,99917.63
2023-01-06T10:11:17.086Z,99907.72
2023-01-06T10:14:09.454Z,99909.69
2023-01-06T10:17:03.006Z,99913.69
2023-01-06T10:20:09.459Z,99928.09
2023-01-06T10:23:04.723Z,99926.59
2023-01-06T10:25:54.379Z,99932.75
2023-01-06T10:28:46.389Z,99925.97
2023-01-06T10:31:36.841Z,99921.16
2023-01-06T10:34:34.354Z,99917.84
2023-01-06T10:37:44.429Z,99925.13
2023-01-06T10:40:44.344Z,99939.56
2023-01-06T10:43:32.868Z,99936.22
2023-01-06T10:46:15.303Z,99942.34
2023-01-06T10:49:03.674Z,99939.53
2023-01-06T10:51:53.428Z,99924.97
2023-01-06T10:54:43.591Z,99927.91
2023-01-06T10:57:33.325Z,99934.41
2023-01-06T11:00:26.377Z,99935.22
2023-01-06T11:03:32.373Z,99940.69
2023-01-06T11:06:24.407Z,99937.53
2023-01-06T11:09:06.704Z,99932.22
2023-01-06T11:12:00.359Z,99935.03
2023-01-06T11:14:43.732Z,99931.53
2023-01-06T11:17:33.319Z,99928.53
2023-01-06T11:20:24.419Z,99929.03
2023-01-06T11:23:30.817Z,99939.63
2023-01-06T11:26:26.299Z,99940.44
2023-01-06T11:29:53.293Z,99927.69
2023-01-06T11:32:36.471Z,99923.22
2023-01-06T11:35:35.429Z,99914.94
2023-01-06T11:38:26.407Z,99916.28
2023-01-06T11:41:17.686Z,99914.31
2023-01-06T11:44:29.428Z,99907.13
2023-01-06T11:47:22.466Z,99903.88
2023-01-06T11:50:05.380Z,99895.47
2023-01-06T11:52:54.375Z,99899.06
2023-01-06T11:55:43.314Z,99899.72
2023-01-06T11:58:47.387Z,99898.59
2023-01-06T12:01:34.339Z,99900.97
2023-01-06T12:05:00.244Z,99897.50
2023-01-06T12:07:58.260Z,99912.63
2023-01-06T12:10:44.403Z,99921.25
2023-01-06T12:13:28.554Z,99917.34
2023-01-06T12:16:30.610Z,99922.53
2023-01-06T12:19:28.734Z,99925.16
2023-01-06T12:22:11.398Z,99928.16
2023-01-06T12:25:03.276Z,99920.56
2023-01-06T12:27:58.349Z,99917.94
2023-01-06T12:30:59.024Z,99916.84
2023-01-06T12:34:02.855Z,99909.84
2023-01-06T12:36:50.655Z,99921.81
2023-01-06T12:39:53.475Z,99921.69
2023-01-06T12:42:44.787Z,99924.59
2023-01-06T12:45:56.594Z,99927.31
2023-01-06T12:48:45.612Z,99920.00
2023-01-06T12:51:52.383Z,99925.81
2023-01-06T12:54:36.786Z,99934.44
2023-01-06T12:57:47.295Z,99941.41
2023-01-06T13:00:45.473Z,99930.94
2023-01-06T13:04:11.526Z,99928.81
2023-01-06T13:07:11.820Z,99924.03
2023-01-06T13:10:33.362Z,99917.44
2023-01-06T13:13:31.218Z,99919.56
2023-01-06T13:16:40.364Z,99937.22
2023-01-06T13:19:56.336Z,99927.41
2023-01-06T13:22:56.529Z,99939.72
2023-01-06T13:26:19.287Z,99938.03
2023-01-06T13:29:08.369Z,99934.19
2023-01-06T13:32:27.730Z,99936.81
2023-01-06T13:35:35.285Z,99941.97
2023-01-06T13:38:39.189Z,99936.00
2023-01-06T13:41:29.322Z,99941.69
2023-01-06T13:44:17.782Z,99940.09
2023-01-06T13:47:27.352Z,99949.38
2023-01-06T13:50:09.756Z,99955.94
2023-01-06T13:52:59.225Z,99966.13
2023-01-06T13:55:51.372Z,99976.88
2023-01-06T13:58:33.563Z,99984.97
2023-01-06T14:01:36.446Z,99989.31
2023-01-06T14:04:43.916Z,99990.31
2023-01-06T14:07:51.409Z,100003.06
2023-01-06T14:10:39.628Z,100019.59
2023-01-06T14:13:27.413Z,100019.81
2023-01-06T14:16:20.316Z,100014.22
2023-01-06T14:19:33.273Z,100017.56
2023-01-06T14:22:28.524Z,100023.16
2023-01-06T14:25:16.370Z,100016.72
2023-01-06T14:28:01.347Z,100013.84
2023-01-06T14:30:51.369Z,100014.94
2023-01-06T14:33:50.658Z,100022.34
2023-01-06T14:36:34.402Z,100010.47
2023-01-06T14:39:37.235Z,100012.88
2023-01-06T14:42:42.282Z,100020.22
2023-01-06T14:45:33.611Z,100015.69
2023-01-06T14:48:26.298Z,100019.44
2023-01-06T14:51:08.682Z,100017.03
2023-01-06T14:54:12.232Z,100015.75
2023-01-06T14:57:07.265Z,100030.41
2023-01-06T15:00:37.411Z,100017.03
2023-01-06T15:03:30.713Z,100023.38
2023-01-06T15:06:30.285Z,100029.53
2023-01-06T15:09:21.368Z,100021.91
2023-01-06T15:12:10.314Z,100018.19
2023-01-06T15:14:52.624Z,100026.56
2023-01-06T15:17:41.307Z,100030.25
2023-01-06T15:20:23.711Z,100021.66
2023-01-06T15:23:13.358Z,100012.72
2023-01-06T15:26:10.252Z,100021.31
2023-01-06T15:29:11.352Z,100007.97
2023-01-06T15:31:57.297Z,99992.69
2023-01-06T15:34:50.322Z,99993.75
2023-01-06T15:37:42.399Z,99990.72
2023-01-06T15:40:38.400Z,99991.69
2023-01-06T15:43:31.633Z,99987.28
2023-01-06T15:46:21.046Z,99984.59
2023-01-06T15:49:12.333Z,99982.47
2023-01-06T15:52:08.882Z,99980.16
2023-01-06T15:54:58.686Z,99984.75
2023-01-06T15:57:53.633Z,99995.25
2023-01-06T16:01:04.272Z,99980.44
2023-01-06T16:03:54.615Z,99968.06
2023-01-06T16:06:48.535Z,99983.34
2023-01-06T16:09:36.956Z,99997.84
2023-01-06T16:12:30.655Z,100001.59
2023-01-06T16:15:42.848Z,100011.19
2023-01-06T16:18:45.567Z,100014.47
2023-01-06T16:21:33.639Z,100009.78
2023-01-06T16:24:38.669Z,99988.69
2023-01-06T16:27:21.317Z,99966.50
2023-01-06T16:30:21.288Z,99965.53
2023-01-06T16:33:06.053Z,99963.94
2023-01-06T16:36:00.370Z,99976.72
2023-01-06T16:38:46.956Z,100002.03
2023-01-06T16:41:36.458Z,100008.72
2023-01-06T16:44:19.004Z,100015.38
2023-01-06T16:47:10.209Z,99997.25
2023-01-06T16:49:52.927Z,100015.44
2023-01-06T16:52:42.503Z,100013.03
2023-01-06T16:55:27.775Z,99998.09
2023-01-06T16:58:37.290Z,99996.13
2023-01-06T17:01:29.519Z,100008.44
2023-01-06T17:04:20.697Z,100000.94
2023-01-06T17:07:09.467Z,100027.38
2023-01-06T17:09:51.906Z,100021.19
2023-01-06T17:12:58.570Z,100022.16
2023-01-06T17:15:47.747Z,100017.56
2023-01-06T17:18:38.349Z,100016.94
2023-01-06T17:21:43.207Z,100018.78
2023-01-06T17:24:31.381Z,100008.56
2023-01-06T17:27:31.403Z,100008.88
2023-01-06T17:30:32.363Z,100005.56
2023-01-06T17:33:22.881Z,100008.03
2023-01-06T17:36:07.274Z,100005.25
2023-01-06T17:39:04.535Z,100007.13
2023-01-06T17:41:54.248Z,100002.22
2023-01-06T17:44:49.918Z,100005.25
2023-01-06T17:47:51.473Z,100002.75
2023-01-06T17:50:41.700Z,99986.38
2023-01-06T17:54:02.630Z,99995.72
2023-01-06T17:56:51.685Z,99988.34
2023-01-06T17:59:40.506Z,100001.22
2023-01-06T18:02:38.563Z,99999.78
2023-01-06T18:05:33.705Z,100009.31
2023-01-06T18:08:15.880Z,99993.78
2023-01-06T18:11:05.377Z,99976.09
2023-01-06T18:13:58.530Z,99977.84
2023-01-06T18:16:49.793Z,99966.75
2023-01-06T18:19:43.955Z,99964.47
2023-01-06T18:22:31.876Z,99980.94
2023-01-06T18:25:32.751Z,100000.47
2023-01-06T18:28:27.002Z,99995.91
2023-01-06T18:31:24.849Z,99985.78
2023-01-06T18:34:31.585Z,99975.88
2023-01-06T18:37:22.194Z,99971.06
2023-01-06T18:40:16.715Z,99967.81
2023-01-06T18:43:01.176Z,99952.63
2023-01-06T18:45:50.385Z,99937.69
2023-01-06T18:48:39.453Z,99926.66
2023-01-06T18:51:31.721Z,99932.88
2023-01-06T18:54:26.248Z,99922.84
2023-01-06T18:57:32.391Z,99922.31
2023-01-06T19:00:38.968Z,99932.25
2023-01-06T19:03:44.239Z,99955.38
2023-01-06T19:06:36.610Z,99965.63
2023-01-06T19:09:31.731Z,99973.16
2023-01-06T19:12:19.274Z,99985.31
2023-01-06T19:15:27.639Z,99977.59
2023-01-06T19:18:12.272Z,99963.56
2023-01-06T19:21:01.672Z,99966.81
2023-01-06T19:23:43.724Z,99965.03
2023-01-06T19:26:53.825Z,99953.31
2023-01-06T19:29:41.170Z,99942.06
2023-01-06T19:32:32.453Z,99945.75
2023-01-06T19:35:28.006Z,99956.97
2023-01-06T19:38:43.554Z,99956.25
2023-01-06T19:41:38.806Z,99943.78
2023-01-06T19:44:22.600Z,99954.59
2023-01-06T19:47:18.605Z,99979.56
2023-01-06T19:50:11.415Z,99978.97
2023-01-06T19:52:59.119Z,99966.13
2023-01-06T19:55:49.259Z,99966.88
2023-01-06T19:58:36.553Z,99959.25
2023-01-06T20:01:28.487Z,99947.47
2023-01-06T20:04:29.707Z,99969.72
2023-01-06T20:07:18.284Z,99966.09
2023-01-06T20:10:06.701Z,99949.31
2023-01-06T20:12:49.305Z,99963.72
2023-01-06T20:15:37.763Z,99958.03
2023-01-06T20:18:20.369Z,99953.28
2023-01-06T20:21:09.549Z,99943.31
2023-01-06T20:23:52.222Z,99946.41
2023-01-06T20:26:35.627Z,99930.97
2023-01-06T20:29:24.306Z,99930.44
2023-01-06T20:32:13.562Z,99926.19
2023-01-06T20:34:55.294Z,99918.72
2023-01-06T20:37:37.599Z,99907.13
2023-01-06T20:40:27.243Z,99910.44
2023-01-06T20:43:09.581Z,99914.72
2023-01-06T20:45:58.309Z,99908.78
2023-01-06T20:48:47.263Z,99906.28
2023-01-06T20:51:29.625Z,99903.66
2023-01-06T20:54:18.168Z,99899.19
2023-01-06T20:57:00.582Z,99885.84
2023-01-06T20:59:49.311Z,99892.41
2023-01-06T21:02:31.662Z,99891.66
2023-01-06T21:05:20.196Z,99891.16
2023-01-06T21:08:09.193Z,99886.03
2023-01-06T21:10:57.505Z,99874.78
2023-01-06T21:13:39.266Z,99875.63
2023-01-06T21:16:27.657Z,99866.78
2023-01-06T21:19:10.298Z,99861.56
2023-01-06T21:21:59.201Z,99859.00
2023-01-06T21:24:41.589Z,99856.19
2023-01-06T21:27:30.289Z,99853.16
2023-01-06T21:30:13.560Z,99853.97
2023-01-06T21:33:02.358Z,99843.97
2023-01-06T21:35:44.585Z,99839.56
2023-01-06T21:38:33.286Z,99843.44
2023-01-06T21:41:39.737Z,99842.75
2023-01-06T21:44:22.284Z,99841.06
2023-01-06T21:47:04.995Z,99850.84
2023-01-06T21:49:54.311Z,99832.53
2023-01-06T21:52:44.479Z,99843.25
2023-01-06T21:55:27.335Z,99846.47
2023-01-06T21:58:16.227Z,99839.34
2023-01-06T22:01:05.402Z,99849.09
2023-01-06T22:03:47.480Z,99848.03
2023-01-06T22:06:37.295Z,99848.34
2023-01-06T22:09:29.549Z,99846.59
2023-01-06T22:12:14.137Z,99836.94
2023-01-06T22:15:03.579Z,99829.63
2023-01-06T22:17:46.316Z,99830.19
2023-01-06T22:20:32.217Z,99833.94
2023-01-06T22:23:26.204Z,99827.13
2023-01-06T22:26:08.628Z,99838.38
2023-01-06T22:28:57.370Z,99830.41
2023-01-06T22:31:41.696Z,99824.59
2023-01-06T22:34:30.199Z,99803.94
2023-01-06T22:37:19.187Z,99795.69
2023-01-06T22:40:14.124Z,99794.03
2023-01-06T22:43:04.246Z,99796.16
2023-01-06T22:45:46.510Z,99805.03
2023-01-06T22:48:35.365Z,99793.72
2023-01-06T22:51:24.361Z,99802.56
2023-01-06T22:54:06.618Z,99795.75
2023-01-06T22:56:55.302Z,99793.72
2023-01-06T22:59:37.483Z,99786.56
2023-01-06T23:02:26.471Z,99774.97
2023-01-06T23:05:15.581Z,99765.25
2023-01-06T23:07:57.271Z,99768.34
2023-01-06T23:10:46.231Z,99777.69
2023-01-06T23:13:28.565Z,99778.78
2023-01-06T23:16:19.357Z,99773.44
2023-01-06T23:19:08.244Z,99769.50
2023-01-06T23:21:56.541Z,99759.78
2023-01-06T23:24:38.130Z,99756.72
2023-01-06T23:27:26.613Z,99758.28
2023-01-06T23:30:09.368Z,99755.34
2023-01-06T23:32:57.577Z,99758.94
2023-01-06T23:35:40.267Z,99773.50
2023-01-06T23:38:28.555Z,99766.41
2023-01-06T23:41:28.292Z,99762.06
2023-01-06T23:44:22.526Z,99764.22
2023-01-06T23:47:04.161Z,99746.31
2023-01-06T23:49:52.621Z,99765.00
2023-01-06T23:52:35.179Z,99761.25
2023-01-06T23:55:24.541Z,99761.16
2023-01-06T23:58:06.193Z,99763.81
